sensor_id;sensor_type;location;lat;lon;timestamp;P1;durP1;ratioP1;P2;durP2;ratioP2
71562;SDS011;59391;52.504;13.438;2023-08-07T00:00:31;4.82;;;3.13;;
71562;SDS011;59391;52.504;13.438;2023-08-07T00:02:56;4.90;;;3.17;;
71562;SDS011;59391;52.504;13.438;2023-08-07T00:05:22;6.20;;;3.70;;
71562;SDS011;59391;52.504;13.438;2023-08-07T00:07:47;5.30;;;3.30;;
71562;SDS011;59391;52.504;13.438;2023-08-07T00:10:13;4.70;;;3.30;;
71562;SDS011;59391;52.504;13.438;2023-08-07T00:12:39;5.65;;;3.50;;
71562;SDS011;59391;52.504;13.438;2023-08-07T00:15:05;5.22;;;3.22;;
71562;SDS011;59391;52.504;13.438;2023-08-07T00:17:31;5.90;;;3.78;;
71562;SDS011;59391;52.504;13.438;2023-08-07T00:19:57;6.37;;;3.90;;
71562;SDS011;59391;52.504;13.438;2023-08-07T00:22:22;6.68;;;3.53;;
71562;SDS011;59391;52.504;13.438;2023-08-07T00:24:48;7.82;;;4.88;;
71562;SDS011;59391;52.504;13.438;2023-08-07T00:27:14;6.60;;;4.47;;
71562;SDS011;59391;52.504;13.438;2023-08-07T00:29:40;5.53;;;3.65;;
71562;SDS011;59391;52.504;13.438;2023-08-07T00:32:05;8.70;;;5.28;;
71562;SDS011;59391;52.504;13.438;2023-08-07T00:34:32;6.80;;;4.40;;
71562;SDS011;59391;52.504;13.438;2023-08-07T00:36:57;7.93;;;5.10;;
71562;SDS011;59391;52.504;13.438;2023-08-07T00:39:23;8.07;;;4.25;;
71562;SDS011;59391;52.504;13.438;2023-08-07T00:41:49;6.72;;;4.40;;
71562;SDS011;59391;52.504;13.438;2023-08-07T00:44:15;6.40;;;4.28;;
71562;SDS011;59391;52.504;13.438;2023-08-07T00:46:40;6.43;;;3.60;;
71562;SDS011;59391;52.504;13.438;2023-08-07T00:49:08;7.60;;;4.20;;
71562;SDS011;59391;52.504;13.438;2023-08-07T00:51:37;7.55;;;4.45;;
71562;SDS011;59391;52.504;13.438;2023-08-07T00:54:04;8.38;;;4.40;;
71562;SDS011;59391;52.504;13.438;2023-08-07T00:56:32;6.53;;;4.30;;
71562;SDS011;59391;52.504;13.438;2023-08-07T00:58:58;6.03;;;4.07;;
71562;SDS011;59391;52.504;13.438;2023-08-07T01:01:26;6.18;;;4.10;;
71562;SDS011;59391;52.504;13.438;2023-08-07T01:03:53;6.53;;;3.78;;
71562;SDS011;59391;52.504;13.438;2023-08-07T01:06:18;6.05;;;3.78;;
71562;SDS011;59391;52.504;13.438;2023-08-07T01:08:44;7.50;;;4.50;;
71562;SDS011;59391;52.504;13.438;2023-08-07T01:14:19;8.48;;;4.88;;
71562;SDS011;59391;52.504;13.438;2023-08-07T01:17:14;8.20;;;4.00;;
71562;SDS011;59391;52.504;13.438;2023-08-07T01:19:43;6.10;;;3.90;;
71562;SDS011;59391;52.504;13.438;2023-08-07T01:22:11;6.00;;;3.80;;
71562;SDS011;59391;52.504;13.438;2023-08-07T01:24:39;6.40;;;3.72;;
71562;SDS011;59391;52.504;13.438;2023-08-07T01:27:12;6.45;;;3.42;;
71562;SDS011;59391;52.504;13.438;2023-08-07T01:32:31;7.15;;;3.53;;
71562;SDS011;59391;52.504;13.438;2023-08-07T01:35:06;6.93;;;3.78;;
71562;SDS011;59391;52.504;13.438;2023-08-07T01:37:38;7.18;;;4.13;;
71562;SDS011;59391;52.504;13.438;2023-08-07T01:40:07;7.60;;;3.90;;
71562;SDS011;59391;52.504;13.438;2023-08-07T01:42:36;5.73;;;3.90;;
71562;SDS011;59391;52.504;13.438;2023-08-07T01:45:03;6.90;;;3.90;;
71562;SDS011;59391;52.504;13.438;2023-08-07T01:47:30;7.35;;;3.80;;
71562;SDS011;59391;52.504;13.438;2023-08-07T01:49:56;6.33;;;4.17;;
71562;SDS011;59391;52.504;13.438;2023-08-07T01:52:21;7.50;;;4.18;;
71562;SDS011;59391;52.504;13.438;2023-08-07T01:54:47;6.50;;;4.10;;
71562;SDS011;59391;52.504;13.438;2023-08-07T01:57:13;5.97;;;4.20;;
71562;SDS011;59391;52.504;13.438;2023-08-07T01:59:39;8.23;;;4.60;;
71562;SDS011;59391;52.504;13.438;2023-08-07T02:02:04;6.97;;;4.47;;
71562;SDS011;59391;52.504;13.438;2023-08-07T02:04:30;6.77;;;4.43;;
71562;SDS011;59391;52.504;13.438;2023-08-07T02:06:56;6.97;;;4.28;;
71562;SDS011;59391;52.504;13.438;2023-08-07T02:09:22;7.17;;;4.37;;
71562;SDS011;59391;52.504;13.438;2023-08-07T02:11:47;7.05;;;4.32;;
71562;SDS011;59391;52.504;13.438;2023-08-07T02:14:13;7.70;;;4.57;;
71562;SDS011;59391;52.504;13.438;2023-08-07T02:16:38;8.30;;;4.97;;
71562;SDS011;59391;52.504;13.438;2023-08-07T02:19:04;8.13;;;4.30;;
71562;SDS011;59391;52.504;13.438;2023-08-07T02:21:30;7.82;;;5.30;;
71562;SDS011;59391;52.504;13.438;2023-08-07T02:23:57;7.03;;;4.40;;
71562;SDS011;59391;52.504;13.438;2023-08-07T02:26:22;7.60;;;4.85;;
71562;SDS011;59391;52.504;13.438;2023-08-07T02:28:48;7.63;;;4.40;;
71562;SDS011;59391;52.504;13.438;2023-08-07T02:31:13;7.00;;;4.47;;
71562;SDS011;59391;52.504;13.438;2023-08-07T02:33:39;9.27;;;4.93;;
71562;SDS011;59391;52.504;13.438;2023-08-07T02:36:06;6.50;;;4.28;;
71562;SDS011;59391;52.504;13.438;2023-08-07T02:38:32;8.52;;;5.07;;
71562;SDS011;59391;52.504;13.438;2023-08-07T02:40:58;7.80;;;4.93;;
71562;SDS011;59391;52.504;13.438;2023-08-07T02:43:24;7.53;;;4.93;;
71562;SDS011;59391;52.504;13.438;2023-08-07T02:45:50;8.77;;;5.20;;
71562;SDS011;59391;52.504;13.438;2023-08-07T02:48:16;7.95;;;4.85;;
71562;SDS011;59391;52.504;13.438;2023-08-07T02:50:42;9.30;;;5.28;;
71562;SDS011;59391;52.504;13.438;2023-08-07T02:53:09;8.40;;;5.30;;
71562;SDS011;59391;52.504;13.438;2023-08-07T02:55:36;9.63;;;5.10;;
71562;SDS011;59391;52.504;13.438;2023-08-07T02:58:01;9.57;;;5.85;;
71562;SDS011;59391;52.504;13.438;2023-08-07T03:00:27;7.63;;;5.20;;
71562;SDS011;59391;52.504;13.438;2023-08-07T03:02:53;8.18;;;5.28;;
71562;SDS011;59391;52.504;13.438;2023-08-07T03:05:18;8.43;;;5.03;;
71562;SDS011;59391;52.504;13.438;2023-08-07T03:07:44;7.00;;;5.13;;
71562;SDS011;59391;52.504;13.438;2023-08-07T03:10:10;8.25;;;4.85;;
71562;SDS011;59391;52.504;13.438;2023-08-07T03:12:36;9.15;;;5.55;;
71562;SDS011;59391;52.504;13.438;2023-08-07T03:15:02;11.20;;;5.30;;
71562;SDS011;59391;52.504;13.438;2023-08-07T03:17:30;9.57;;;5.35;;
71562;SDS011;59391;52.504;13.438;2023-08-07T03:19:55;8.25;;;5.32;;
71562;SDS011;59391;52.504;13.438;2023-08-07T03:22:21;8.73;;;5.87;;
71562;SDS011;59391;52.504;13.438;2023-08-07T03:24:47;8.27;;;5.37;;
71562;SDS011;59391;52.504;13.438;2023-08-07T03:27:13;10.63;;;5.40;;
71562;SDS011;59391;52.504;13.438;2023-08-07T03:29:39;10.68;;;4.90;;
71562;SDS011;59391;52.504;13.438;2023-08-07T03:32:05;9.73;;;5.53;;
71562;SDS011;59391;52.504;13.438;2023-08-07T03:34:31;10.02;;;5.57;;
71562;SDS011;59391;52.504;13.438;2023-08-07T03:36:56;8.63;;;5.32;;
71562;SDS011;59391;52.504;13.438;2023-08-07T03:39:24;9.57;;;5.13;;
71562;SDS011;59391;52.504;13.438;2023-08-07T03:41:50;9.60;;;5.25;;
71562;SDS011;59391;52.504;13.438;2023-08-07T03:44:16;12.00;;;6.30;;
71562;SDS011;59391;52.504;13.438;2023-08-07T03:46:41;10.73;;;5.20;;
71562;SDS011;59391;52.504;13.438;2023-08-07T03:49:07;9.68;;;5.38;;
71562;SDS011;59391;52.504;13.438;2023-08-07T03:51:33;7.93;;;5.30;;
71562;SDS011;59391;52.504;13.438;2023-08-07T03:53:59;10.10;;;5.65;;
71562;SDS011;59391;52.504;13.438;2023-08-07T03:56:24;10.13;;;5.67;;
71562;SDS011;59391;52.504;13.438;2023-08-07T03:58:50;7.85;;;5.30;;
71562;SDS011;59391;52.504;13.438;2023-08-07T04:01:16;11.13;;;5.77;;
71562;SDS011;59391;52.504;13.438;2023-08-07T04:03:42;9.50;;;6.30;;
71562;SDS011;59391;52.504;13.438;2023-08-07T04:06:07;10.73;;;6.10;;
71562;SDS011;59391;52.504;13.438;2023-08-07T04:08:35;9.63;;;5.68;;
71562;SDS011;59391;52.504;13.438;2023-08-07T04:11:01;8.90;;;5.00;;
71562;SDS011;59391;52.504;13.438;2023-08-07T04:13:29;11.18;;;5.55;;
71562;SDS011;59391;52.504;13.438;2023-08-07T04:15:55;9.13;;;5.50;;
71562;SDS011;59391;52.504;13.438;2023-08-07T04:18:22;8.60;;;5.57;;
71562;SDS011;59391;52.504;13.438;2023-08-07T04:20:52;9.80;;;6.20;;
71562;SDS011;59391;52.504;13.438;2023-08-07T04:23:19;8.70;;;5.60;;
71562;SDS011;59391;52.504;13.438;2023-08-07T04:25:49;8.27;;;5.55;;
71562;SDS011;59391;52.504;13.438;2023-08-07T04:28:16;8.05;;;5.68;;
71562;SDS011;59391;52.504;13.438;2023-08-07T04:30:42;10.20;;;5.93;;
71562;SDS011;59391;52.504;13.438;2023-08-07T04:33:08;8.63;;;5.33;;
71562;SDS011;59391;52.504;13.438;2023-08-07T04:35:34;7.47;;;4.90;;
71562;SDS011;59391;52.504;13.438;2023-08-07T04:38:00;9.57;;;5.60;;
71562;SDS011;59391;52.504;13.438;2023-08-07T04:40:27;10.20;;;5.50;;
71562;SDS011;59391;52.504;13.438;2023-08-07T04:42:53;12.82;;;6.25;;
71562;SDS011;59391;52.504;13.438;2023-08-07T04:45:19;8.33;;;5.50;;
71562;SDS011;59391;52.504;13.438;2023-08-07T04:47:44;9.07;;;5.25;;
71562;SDS011;59391;52.504;13.438;2023-08-07T04:50:10;8.43;;;5.40;;
71562;SDS011;59391;52.504;13.438;2023-08-07T04:52:36;11.23;;;5.43;;
71562;SDS011;59391;52.504;13.438;2023-08-07T04:55:02;10.00;;;5.13;;
71562;SDS011;59391;52.504;13.438;2023-08-07T04:57:28;10.68;;;6.32;;
71562;SDS011;59391;52.504;13.438;2023-08-07T04:59:53;9.53;;;5.57;;
71562;SDS011;59391;52.504;13.438;2023-08-07T05:02:19;8.38;;;5.20;;
71562;SDS011;59391;52.504;13.438;2023-08-07T05:04:45;8.80;;;5.30;;
71562;SDS011;59391;52.504;13.438;2023-08-07T05:07:10;10.45;;;5.05;;
71562;SDS011;59391;52.504;13.438;2023-08-07T05:09:37;7.53;;;4.88;;
71562;SDS011;59391;52.504;13.438;2023-08-07T05:12:03;7.85;;;5.05;;
71562;SDS011;59391;52.504;13.438;2023-08-07T05:14:31;8.25;;;4.82;;
71562;SDS011;59391;52.504;13.438;2023-08-07T05:16:57;6.97;;;4.70;;
71562;SDS011;59391;52.504;13.438;2023-08-07T05:19:22;6.80;;;4.77;;
71562;SDS011;59391;52.504;13.438;2023-08-07T05:21:48;7.95;;;5.40;;
71562;SDS011;59391;52.504;13.438;2023-08-07T05:24:16;8.00;;;5.18;;
71562;SDS011;59391;52.504;13.438;2023-08-07T05:26:42;6.63;;;4.85;;
71562;SDS011;59391;52.504;13.438;2023-08-07T05:29:08;7.82;;;4.82;;
71562;SDS011;59391;52.504;13.438;2023-08-07T05:31:33;6.73;;;4.60;;
71562;SDS011;59391;52.504;13.438;2023-08-07T05:33:59;8.98;;;4.45;;
71562;SDS011;59391;52.504;13.438;2023-08-07T05:36:25;8.10;;;4.57;;
71562;SDS011;59391;52.504;13.438;2023-08-07T05:38:51;7.50;;;4.70;;
71562;SDS011;59391;52.504;13.438;2023-08-07T05:41:16;6.95;;;4.60;;
71562;SDS011;59391;52.504;13.438;2023-08-07T05:43:42;7.53;;;4.93;;
71562;SDS011;59391;52.504;13.438;2023-08-07T05:46:08;7.78;;;5.00;;
71562;SDS011;59391;52.504;13.438;2023-08-07T05:48:34;7.30;;;4.32;;
71562;SDS011;59391;52.504;13.438;2023-08-07T05:51:00;6.70;;;4.77;;
71562;SDS011;59391;52.504;13.438;2023-08-07T05:53:26;8.52;;;4.70;;
71562;SDS011;59391;52.504;13.438;2023-08-07T05:55:51;8.43;;;4.90;;
71562;SDS011;59391;52.504;13.438;2023-08-07T05:58:17;7.35;;;4.75;;
71562;SDS011;59391;52.504;13.438;2023-08-07T06:00:43;8.47;;;4.90;;
71562;SDS011;59391;52.504;13.438;2023-08-07T06:03:09;6.90;;;4.53;;
71562;SDS011;59391;52.504;13.438;2023-08-07T06:05:35;8.87;;;4.63;;
71562;SDS011;59391;52.504;13.438;2023-08-07T06:08:00;7.55;;;4.63;;
71562;SDS011;59391;52.504;13.438;2023-08-07T06:10:26;9.37;;;4.47;;
71562;SDS011;59391;52.504;13.438;2023-08-07T06:12:52;6.63;;;4.75;;
71562;SDS011;59391;52.504;13.438;2023-08-07T06:15:18;8.98;;;5.10;;
71562;SDS011;59391;52.504;13.438;2023-08-07T06:17:44;6.53;;;4.27;;
71562;SDS011;59391;52.504;13.438;2023-08-07T06:20:10;7.18;;;4.53;;
71562;SDS011;59391;52.504;13.438;2023-08-07T06:22:37;7.57;;;4.45;;
71562;SDS011;59391;52.504;13.438;2023-08-07T06:25:03;6.57;;;4.23;;
71562;SDS011;59391;52.504;13.438;2023-08-07T06:27:30;6.75;;;4.40;;
71562;SDS011;59391;52.504;13.438;2023-08-07T06:29:56;6.63;;;4.20;;
71562;SDS011;59391;52.504;13.438;2023-08-07T06:32:22;7.53;;;4.03;;
71562;SDS011;59391;52.504;13.438;2023-08-07T06:34:50;7.55;;;4.47;;
71562;SDS011;59391;52.504;13.438;2023-08-07T06:37:15;6.93;;;3.63;;
71562;SDS011;59391;52.504;13.438;2023-08-07T06:39:44;8.85;;;3.88;;
71562;SDS011;59391;52.504;13.438;2023-08-07T06:42:11;6.78;;;4.32;;
71562;SDS011;59391;52.504;13.438;2023-08-07T06:44:37;6.73;;;3.80;;
71562;SDS011;59391;52.504;13.438;2023-08-07T06:47:03;7.25;;;4.10;;
71562;SDS011;59391;52.504;13.438;2023-08-07T06:49:28;6.80;;;4.00;;
71562;SDS011;59391;52.504;13.438;2023-08-07T06:51:56;6.10;;;3.72;;
71562;SDS011;59391;52.504;13.438;2023-08-07T06:54:23;5.55;;;3.50;;
71562;SDS011;59391;52.504;13.438;2023-08-07T06:56:49;7.60;;;3.80;;
71562;SDS011;59391;52.504;13.438;2023-08-07T06:59:14;6.57;;;3.57;;
71562;SDS011;59391;52.504;13.438;2023-08-07T07:01:40;6.68;;;3.85;;
71562;SDS011;59391;52.504;13.438;2023-08-07T07:04:05;6.20;;;3.50;;
71562;SDS011;59391;52.504;13.438;2023-08-07T07:06:39;5.63;;;3.80;;
71562;SDS011;59391;52.504;13.438;2023-08-07T07:09:05;5.33;;;3.43;;
71562;SDS011;59391;52.504;13.438;2023-08-07T07:11:30;7.20;;;3.40;;
71562;SDS011;59391;52.504;13.438;2023-08-07T07:13:56;8.57;;;3.20;;
71562;SDS011;59391;52.504;13.438;2023-08-07T07:16:22;5.47;;;3.40;;
71562;SDS011;59391;52.504;13.438;2023-08-07T07:18:48;5.45;;;3.05;;
71562;SDS011;59391;52.504;13.438;2023-08-07T07:21:15;5.30;;;3.40;;
71562;SDS011;59391;52.504;13.438;2023-08-07T07:23:41;7.03;;;3.40;;
71562;SDS011;59391;52.504;13.438;2023-08-07T07:26:07;5.40;;;3.40;;
71562;SDS011;59391;52.504;13.438;2023-08-07T07:28:32;6.70;;;3.50;;
71562;SDS011;59391;52.504;13.438;2023-08-07T07:30:58;7.27;;;3.53;;
71562;SDS011;59391;52.504;13.438;2023-08-07T07:33:23;5.53;;;3.50;;
71562;SDS011;59391;52.504;13.438;2023-08-07T07:35:49;7.60;;;3.60;;
71562;SDS011;59391;52.504;13.438;2023-08-07T07:38:15;5.32;;;3.35;;
71562;SDS011;59391;52.504;13.438;2023-08-07T07:40:41;6.30;;;3.13;;
71562;SDS011;59391;52.504;13.438;2023-08-07T07:43:07;6.00;;;3.40;;
71562;SDS011;59391;52.504;13.438;2023-08-07T07:45:33;5.45;;;3.20;;
71562;SDS011;59391;52.504;13.438;2023-08-07T07:48:00;6.70;;;3.42;;
71562;SDS011;59391;52.504;13.438;2023-08-07T07:50:27;6.43;;;3.40;;
71562;SDS011;59391;52.504;13.438;2023-08-07T07:52:53;5.15;;;3.15;;
71562;SDS011;59391;52.504;13.438;2023-08-07T07:55:19;5.57;;;3.50;;
71562;SDS011;59391;52.504;13.438;2023-08-07T07:57:45;5.07;;;3.50;;
71562;SDS011;59391;52.504;13.438;2023-08-07T08:00:11;5.73;;;3.50;;
71562;SDS011;59391;52.504;13.438;2023-08-07T08:02:38;6.07;;;3.38;;
71562;SDS011;59391;52.504;13.438;2023-08-07T08:05:06;4.63;;;3.00;;
71562;SDS011;59391;52.504;13.438;2023-08-07T08:07:32;5.82;;;3.00;;
71562;SDS011;59391;52.504;13.438;2023-08-07T08:09:59;6.50;;;3.85;;
71562;SDS011;59391;52.504;13.438;2023-08-07T08:12:25;5.90;;;3.53;;
71562;SDS011;59391;52.504;13.438;2023-08-07T08:14:51;5.60;;;3.40;;
71562;SDS011;59391;52.504;13.438;2023-08-07T08:17:17;4.75;;;3.05;;
71562;SDS011;59391;52.504;13.438;2023-08-07T08:19:42;5.75;;;3.38;;
71562;SDS011;59391;52.504;13.438;2023-08-07T08:22:08;9.43;;;3.50;;
71562;SDS011;59391;52.504;13.438;2023-08-07T08:24:34;5.13;;;3.25;;
71562;SDS011;59391;52.504;13.438;2023-08-07T08:27:00;6.85;;;3.63;;
71562;SDS011;59391;52.504;13.438;2023-08-07T08:29:26;6.13;;;3.70;;
71562;SDS011;59391;52.504;13.438;2023-08-07T08:31:53;5.97;;;4.05;;
71562;SDS011;59391;52.504;13.438;2023-08-07T08:34:20;6.60;;;4.05;;
71562;SDS011;59391;52.504;13.438;2023-08-07T08:36:46;6.32;;;3.60;;
71562;SDS011;59391;52.504;13.438;2023-08-07T08:39:12;5.87;;;3.80;;
71562;SDS011;59391;52.504;13.438;2023-08-07T08:41:38;7.15;;;3.80;;
71562;SDS011;59391;52.504;13.438;2023-08-07T08:44:07;6.30;;;3.78;;
71562;SDS011;59391;52.504;13.438;2023-08-07T08:46:36;6.45;;;3.72;;
71562;SDS011;59391;52.504;13.438;2023-08-07T08:49:04;4.80;;;3.40;;
71562;SDS011;59391;52.504;13.438;2023-08-07T08:51:31;5.82;;;4.15;;
71562;SDS011;59391;52.504;13.438;2023-08-07T08:53:57;7.93;;;3.90;;
71562;SDS011;59391;52.504;13.438;2023-08-07T08:56:24;6.40;;;3.72;;
71562;SDS011;59391;52.504;13.438;2023-08-07T08:58:50;6.93;;;3.80;;
71562;SDS011;59391;52.504;13.438;2023-08-07T09:01:17;6.05;;;3.80;;
71562;SDS011;59391;52.504;13.438;2023-08-07T09:03:46;5.80;;;3.05;;
71562;SDS011;59391;52.504;13.438;2023-08-07T09:06:12;7.47;;;3.80;;
71562;SDS011;59391;52.504;13.438;2023-08-07T09:08:42;5.57;;;3.70;;
71562;SDS011;59391;52.504;13.438;2023-08-07T09:11:10;6.72;;;3.80;;
71562;SDS011;59391;52.504;13.438;2023-08-07T09:13:37;6.22;;;3.28;;
71562;SDS011;59391;52.504;13.438;2023-08-07T09:16:04;5.88;;;3.35;;
71562;SDS011;59391;52.504;13.438;2023-08-07T09:18:32;6.22;;;3.38;;
71562;SDS011;59391;52.504;13.438;2023-08-07T09:20:58;6.53;;;3.23;;
71562;SDS011;59391;52.504;13.438;2023-08-07T09:23:25;5.70;;;3.47;;
71562;SDS011;59391;52.504;13.438;2023-08-07T09:26:01;5.85;;;3.38;;
71562;SDS011;59391;52.504;13.438;2023-08-07T09:28:29;5.75;;;3.60;;
71562;SDS011;59391;52.504;13.438;2023-08-07T09:30:56;6.60;;;3.90;;
71562;SDS011;59391;52.504;13.438;2023-08-07T09:33:26;5.85;;;3.53;;
71562;SDS011;59391;52.504;13.438;2023-08-07T09:36:01;6.32;;;3.50;;
71562;SDS011;59391;52.504;13.438;2023-08-07T09:38:28;4.82;;;3.20;;
71562;SDS011;59391;52.504;13.438;2023-08-07T09:40:57;5.60;;;3.30;;
71562;SDS011;59391;52.504;13.438;2023-08-07T09:43:24;6.03;;;3.47;;
71562;SDS011;59391;52.504;13.438;2023-08-07T09:45:50;5.95;;;3.58;;
71562;SDS011;59391;52.504;13.438;2023-08-07T09:48:24;5.43;;;3.57;;
71562;SDS011;59391;52.504;13.438;2023-08-07T09:50:50;6.13;;;3.45;;
71562;SDS011;59391;52.504;13.438;2023-08-07T09:53:16;5.93;;;3.05;;
71562;SDS011;59391;52.504;13.438;2023-08-07T09:55:42;6.27;;;3.10;;
71562;SDS011;59391;52.504;13.438;2023-08-07T09:58:08;4.60;;;2.80;;
71562;SDS011;59391;52.504;13.438;2023-08-07T10:00:37;5.20;;;3.03;;
71562;SDS011;59391;52.504;13.438;2023-08-07T10:03:02;5.55;;;3.33;;
71562;SDS011;59391;52.504;13.438;2023-08-07T10:05:29;5.70;;;3.20;;
71562;SDS011;59391;52.504;13.438;2023-08-07T10:07:55;5.13;;;2.70;;
71562;SDS011;59391;52.504;13.438;2023-08-07T10:10:22;4.50;;;3.10;;
71562;SDS011;59391;52.504;13.438;2023-08-07T10:12:50;6.80;;;2.90;;
71562;SDS011;59391;52.504;13.438;2023-08-07T10:15:17;5.03;;;3.08;;
71562;SDS011;59391;52.504;13.438;2023-08-07T10:17:44;5.17;;;2.70;;
71562;SDS011;59391;52.504;13.438;2023-08-07T10:20:10;5.45;;;2.80;;
71562;SDS011;59391;52.504;13.438;2023-08-07T10:22:38;5.50;;;2.80;;
71562;SDS011;59391;52.504;13.438;2023-08-07T10:25:06;5.63;;;3.17;;
71562;SDS011;59391;52.504;13.438;2023-08-07T10:27:33;5.93;;;3.00;;
71562;SDS011;59391;52.504;13.438;2023-08-07T10:30:04;5.53;;;2.97;;
71562;SDS011;59391;52.504;13.438;2023-08-07T10:32:34;5.03;;;2.83;;
71562;SDS011;59391;52.504;13.438;2023-08-07T10:35:03;6.35;;;3.00;;
71562;SDS011;59391;52.504;13.438;2023-08-07T10:37:39;5.55;;;2.95;;
71562;SDS011;59391;52.504;13.438;2023-08-07T10:40:08;4.60;;;2.87;;
71562;SDS011;59391;52.504;13.438;2023-08-07T10:42:56;6.65;;;2.88;;
71562;SDS011;59391;52.504;13.438;2023-08-07T10:45:37;6.47;;;2.80;;
71562;SDS011;59391;52.504;13.438;2023-08-07T10:50:49;5.68;;;3.05;;
71562;SDS011;59391;52.504;13.438;2023-08-07T10:55:55;5.88;;;2.60;;
71562;SDS011;59391;52.504;13.438;2023-08-07T10:58:26;5.82;;;2.80;;
71562;SDS011;59391;52.504;13.438;2023-08-07T11:04:10;6.90;;;2.90;;
71562;SDS011;59391;52.504;13.438;2023-08-07T11:06:39;5.93;;;2.67;;
71562;SDS011;59391;52.504;13.438;2023-08-07T11:09:07;5.28;;;2.70;;
71562;SDS011;59391;52.504;13.438;2023-08-07T11:11:37;6.50;;;2.90;;
71562;SDS011;59391;52.504;13.438;2023-08-07T11:14:09;5.20;;;3.20;;
71562;SDS011;59391;52.504;13.438;2023-08-07T11:16:36;5.63;;;3.00;;
71562;SDS011;59391;52.504;13.438;2023-08-07T11:19:03;6.43;;;3.20;;
71562;SDS011;59391;52.504;13.438;2023-08-07T11:21:32;7.07;;;3.60;;
71562;SDS011;59391;52.504;13.438;2023-08-07T11:23:59;5.68;;;3.00;;
71562;SDS011;59391;52.504;13.438;2023-08-07T11:26:25;6.55;;;3.20;;
71562;SDS011;59391;52.504;13.438;2023-08-07T11:28:53;5.32;;;2.90;;
71562;SDS011;59391;52.504;13.438;2023-08-07T11:31:21;5.20;;;3.30;;
71562;SDS011;59391;52.504;13.438;2023-08-07T11:33:52;7.03;;;3.53;;
71562;SDS011;59391;52.504;13.438;2023-08-07T11:36:21;5.72;;;3.83;;
71562;SDS011;59391;52.504;13.438;2023-08-07T11:38:47;5.20;;;3.35;;
71562;SDS011;59391;52.504;13.438;2023-08-07T11:41:14;5.60;;;3.40;;
71562;SDS011;59391;52.504;13.438;2023-08-07T11:43:41;6.07;;;3.28;;
71562;SDS011;59391;52.504;13.438;2023-08-07T11:46:08;8.40;;;3.47;;
71562;SDS011;59391;52.504;13.438;2023-08-07T11:48:37;6.82;;;3.58;;
71562;SDS011;59391;52.504;13.438;2023-08-07T11:51:04;5.50;;;4.13;;
71562;SDS011;59391;52.504;13.438;2023-08-07T11:53:32;6.93;;;3.80;;
71562;SDS011;59391;52.504;13.438;2023-08-07T11:56:01;4.93;;;3.45;;
71562;SDS011;59391;52.504;13.438;2023-08-07T11:58:34;5.35;;;3.53;;
71562;SDS011;59391;52.504;13.438;2023-08-07T12:01:13;6.00;;;3.50;;
71562;SDS011;59391;52.504;13.438;2023-08-07T12:03:41;7.68;;;3.72;;
71562;SDS011;59391;52.504;13.438;2023-08-07T12:06:16;5.20;;;2.90;;
71562;SDS011;59391;52.504;13.438;2023-08-07T12:08:42;6.22;;;3.35;;
71562;SDS011;59391;52.504;13.438;2023-08-07T12:11:09;5.50;;;2.77;;
71562;SDS011;59391;52.504;13.438;2023-08-07T12:13:38;6.75;;;3.17;;
71562;SDS011;59391;52.504;13.438;2023-08-07T12:16:07;5.47;;;3.38;;
71562;SDS011;59391;52.504;13.438;2023-08-07T12:18:34;5.38;;;2.67;;
71562;SDS011;59391;52.504;13.438;2023-08-07T12:21:03;5.47;;;3.58;;
71562;SDS011;59391;52.504;13.438;2023-08-07T12:23:35;4.78;;;3.40;;
71562;SDS011;59391;52.504;13.438;2023-08-07T12:26:02;8.27;;;3.20;;
71562;SDS011;59391;52.504;13.438;2023-08-07T12:28:31;7.50;;;3.20;;
71562;SDS011;59391;52.504;13.438;2023-08-07T12:31:01;5.60;;;3.15;;
71562;SDS011;59391;52.504;13.438;2023-08-07T12:33:30;6.57;;;3.35;;
71562;SDS011;59391;52.504;13.438;2023-08-07T12:35:56;7.35;;;3.22;;
71562;SDS011;59391;52.504;13.438;2023-08-07T12:38:23;7.03;;;3.47;;
71562;SDS011;59391;52.504;13.438;2023-08-07T12:40:49;6.40;;;3.50;;
71562;SDS011;59391;52.504;13.438;2023-08-07T12:43:15;6.45;;;3.30;;
71562;SDS011;59391;52.504;13.438;2023-08-07T12:45:40;7.23;;;3.50;;
71562;SDS011;59391;52.504;13.438;2023-08-07T12:48:06;8.13;;;3.30;;
71562;SDS011;59391;52.504;13.438;2023-08-07T12:50:32;6.43;;;3.30;;
71562;SDS011;59391;52.504;13.438;2023-08-07T12:52:58;7.70;;;3.00;;
71562;SDS011;59391;52.504;13.438;2023-08-07T12:55:24;6.38;;;3.03;;
71562;SDS011;59391;52.504;13.438;2023-08-07T12:57:51;7.93;;;3.22;;
71562;SDS011;59391;52.504;13.438;2023-08-07T13:00:18;8.87;;;3.63;;
71562;SDS011;59391;52.504;13.438;2023-08-07T13:02:44;6.35;;;3.25;;
71562;SDS011;59391;52.504;13.438;2023-08-07T13:05:12;7.15;;;3.15;;
71562;SDS011;59391;52.504;13.438;2023-08-07T13:07:39;7.85;;;3.00;;
71562;SDS011;59391;52.504;13.438;2023-08-07T13:10:06;7.28;;;2.95;;
71562;SDS011;59391;52.504;13.438;2023-08-07T13:12:34;7.33;;;3.10;;
71562;SDS011;59391;52.504;13.438;2023-08-07T13:15:05;7.13;;;3.10;;
71562;SDS011;59391;52.504;13.438;2023-08-07T13:17:33;6.95;;;2.95;;
71562;SDS011;59391;52.504;13.438;2023-08-07T13:20:02;7.72;;;2.75;;
71562;SDS011;59391;52.504;13.438;2023-08-07T13:22:35;7.95;;;3.30;;
71562;SDS011;59391;52.504;13.438;2023-08-07T13:25:06;7.53;;;3.00;;
71562;SDS011;59391;52.504;13.438;2023-08-07T13:27:34;8.43;;;3.00;;
71562;SDS011;59391;52.504;13.438;2023-08-07T13:30:00;7.60;;;2.80;;
71562;SDS011;59391;52.504;13.438;2023-08-07T13:32:26;10.05;;;2.90;;
71562;SDS011;59391;52.504;13.438;2023-08-07T13:34:52;8.70;;;2.85;;
71562;SDS011;59391;52.504;13.438;2023-08-07T13:37:19;5.10;;;2.50;;
71562;SDS011;59391;52.504;13.438;2023-08-07T13:39:44;8.77;;;2.67;;
71562;SDS011;59391;52.504;13.438;2023-08-07T13:42:10;8.93;;;2.80;;
71562;SDS011;59391;52.504;13.438;2023-08-07T13:44:39;7.18;;;2.85;;
71562;SDS011;59391;52.504;13.438;2023-08-07T13:47:04;7.97;;;2.75;;
71562;SDS011;59391;52.504;13.438;2023-08-07T13:49:31;7.97;;;2.47;;
71562;SDS011;59391;52.504;13.438;2023-08-07T13:51:57;5.80;;;2.72;;
71562;SDS011;59391;52.504;13.438;2023-08-07T13:54:22;6.53;;;2.80;;
71562;SDS011;59391;52.504;13.438;2023-08-07T13:56:48;6.25;;;2.92;;
71562;SDS011;59391;52.504;13.438;2023-08-07T13:59:15;6.85;;;3.00;;
71562;SDS011;59391;52.504;13.438;2023-08-07T14:01:41;8.73;;;3.03;;
71562;SDS011;59391;52.504;13.438;2023-08-07T14:04:06;6.63;;;2.65;;
71562;SDS011;59391;52.504;13.438;2023-08-07T14:06:32;6.30;;;3.07;;
71562;SDS011;59391;52.504;13.438;2023-08-07T14:08:58;6.80;;;2.83;;
71562;SDS011;59391;52.504;13.438;2023-08-07T14:11:24;9.83;;;3.30;;
71562;SDS011;59391;52.504;13.438;2023-08-07T14:13:55;7.32;;;3.33;;
71562;SDS011;59391;52.504;13.438;2023-08-07T14:16:24;8.48;;;2.90;;
71562;SDS011;59391;52.504;13.438;2023-08-07T14:18:50;7.32;;;3.10;;
71562;SDS011;59391;52.504;13.438;2023-08-07T14:21:16;7.57;;;2.97;;
71562;SDS011;59391;52.504;13.438;2023-08-07T14:23:42;9.90;;;2.90;;
71562;SDS011;59391;52.504;13.438;2023-08-07T14:26:10;8.93;;;3.30;;
71562;SDS011;59391;52.504;13.438;2023-08-07T14:28:40;11.03;;;5.23;;
71562;SDS011;59391;52.504;13.438;2023-08-07T14:31:06;7.05;;;3.03;;
71562;SDS011;59391;52.504;13.438;2023-08-07T14:33:33;7.15;;;3.10;;
71562;SDS011;59391;52.504;13.438;2023-08-07T14:36:00;6.65;;;2.75;;
71562;SDS011;59391;52.504;13.438;2023-08-07T14:38:29;6.80;;;2.97;;
71562;SDS011;59391;52.504;13.438;2023-08-07T14:40:55;5.07;;;2.80;;
71562;SDS011;59391;52.504;13.438;2023-08-07T14:43:28;7.13;;;2.80;;
71562;SDS011;59391;52.504;13.438;2023-08-07T14:46:02;7.13;;;3.00;;